Time;durP1;ratioP1;P1;durP2;ratioP2;P2;SDS_P1;SDS_P2;PMS_P1;PMS_P2;Temp;Humidity;BMP_temperature;BMP_pressure;BME280_temperature;BME280_humidity;BME280_pressure;Samples;Min_cycle;Max_cycle;Signal;HPM_P1;HPM_P2
2023/03/02 00:00:21;;;;;;;3.72;1.83;;;;;;;;;;6300395;22;20063;-64
2023/03/02 00:02:48;;;;;;;3.35;1.92;;;;;;;;;;6299621;22;20019;-63
2023/03/02 00:05:23;;;;;;;3.78;1.73;;;;;;;;;;6300987;22;20024;-63
2023/03/02 00:07:50;;;;;;;3.30;1.98;;;;;;;;;;6300267;22;20360;-63
2023/03/02 00:10:31;;;;;;;7.10;2.00;;;;;;;;;;6299723;22;20102;-62
2023/03/02 00:12:58;;;;;;;2.03;1.35;;;;;;;;;;6300173;22;20347;-63
2023/03/02 00:15:32;;;;;;;3.80;2.00;;;;;;;;;;6300841;22;20055;-63
2023/03/02 00:17:59;;;;;;;3.90;2.30;;;;;;;;;;6298452;22;20415;-63
2023/03/02 00:20:26;;;;;;;5.45;1.95;;;;;;;;;;6302079;22;20023;-63
2023/03/02 00:23:00;;;;;;;5.18;1.77;;;;;;;;;;6299595;22;20090;-63
2023/03/02 00:25:27;;;;;;;4.32;1.83;;;;;;;;;;6299307;22;20098;-63
2023/03/02 00:27:54;;;;;;;2.17;1.50;;;;;;;;;;6300354;22;20026;-63
2023/03/02 00:30:28;;;;;;;3.00;1.70;;;;;;;;;;6300409;22;20019;-63
2023/03/02 00:32:57;;;;;;;2.67;1.73;;;;;;;;;;6299674;22;20042;-63
2023/03/02 00:35:36;;;;;;;2.88;1.48;;;;;;;;;;6300923;22;20037;-63
2023/03/02 00:38:03;;;;;;;2.03;1.50;;;;;;;;;;6298706;22;20084;-63
2023/03/02 00:40:30;;;;;;;5.20;1.85;;;;;;;;;;6299807;22;20027;-63
2023/03/02 00:43:04;;;;;;;2.97;1.70;;;;;;;;;;6299576;22;20098;-62
2023/03/02 00:45:31;;;;;;;2.17;1.70;;;;;;;;;;6299158;22;20110;-63
2023/03/02 00:48:05;;;;;;;4.45;1.42;;;;;;;;;;6298644;22;20513;-63
2023/03/02 00:50:32;;;;;;;2.38;1.13;;;;;;;;;;6299459;22;20026;-63
2023/03/02 00:53:08;;;;;;;3.28;1.95;;;;;;;;;;6297804;22;20015;-63
2023/03/02 00:55:35;;;;;;;3.00;1.92;;;;;;;;;;6299775;22;20027;-63
2023/03/02 00:58:03;;;;;;;2.90;1.77;;;;;;;;;;6300208;22;20106;-63
2023/03/02 01:00:37;;;;;;;4.82;1.90;;;;;;;;;;6300409;22;20019;-63
2023/03/02 01:03:04;;;;;;;3.28;1.90;;;;;;;;;;6298894;22;20025;-62
2023/03/02 01:05:38;;;;;;;2.72;1.80;;;;;;;;;;6298179;22;20023;-63
2023/03/02 01:08:12;;;;;;;4.32;2.03;;;;;;;;;;6298472;22;20065;-62
2023/03/02 01:10:46;;;;;;;3.78;1.98;;;;;;;;;;6299404;22;20346;-62
2023/03/02 01:13:13;;;;;;;2.40;1.60;;;;;;;;;;6298876;22;20046;-63
2023/03/02 01:15:40;;;;;;;4.15;1.88;;;;;;;;;;6272955;22;20029;-63
2023/03/02 01:18:14;;;;;;;5.05;1.80;;;;;;;;;;6300585;22;20465;-63
2023/03/02 01:20:41;;;;;;;5.65;2.20;;;;;;;;;;6300320;22;20065;-63
2023/03/02 01:23:08;;;;;;;5.28;2.10;;;;;;;;;;6299290;22;20051;-62
2023/03/02 01:25:42;;;;;;;3.83;2.15;;;;;;;;;;6300555;22;20089;-63
2023/03/02 01:28:09;;;;;;;3.58;2.05;;;;;;;;;;6300561;22;20030;-63
2023/03/02 01:30:43;;;;;;;4.97;2.20;;;;;;;;;;6299959;22;20023;-63
2023/03/02 01:33:10;;;;;;;4.65;2.25;;;;;;;;;;6298133;22;20102;-63
2023/03/02 01:35:37;;;;;;;2.80;1.42;;;;;;;;;;6300952;22;20802;-62
2023/03/02 01:38:11;;;;;;;2.15;1.50;;;;;;;;;;6300108;22;20123;-63
2023/03/02 01:40:38;;;;;;;4.50;1.83;;;;;;;;;;6299636;22;20473;-63
2023/03/02 01:43:14;;;;;;;2.85;1.73;;;;;;;;;;6299534;22;20073;-63
2023/03/02 01:45:53;;;;;;;4.43;2.10;;;;;;;;;;6298854;22;20098;-63
2023/03/02 01:48:47;;;;;;;4.13;1.92;;;;;;;;;;6297875;22;20548;-63
2023/03/02 01:51:22;;;;;;;2.53;1.80;;;;;;;;;;6299318;22;20023;-63
2023/03/02 01:54:00;;;;;;;3.10;1.73;;;;;;;;;;6299614;22;20054;-62
2023/03/02 01:56:36;;;;;;;2.75;1.70;;;;;;;;;;6300967;22;20098;-62
2023/03/02 01:59:13;;;;;;;2.85;1.50;;;;;;;;;;6274052;22;20094;-62
2023/03/02 02:01:49;;;;;;;2.72;1.55;;;;;;;;;;6298817;22;20026;-62
2023/03/02 02:04:25;;;;;;;2.50;1.63;;;;;;;;;;6298358;22;20098;-62
2023/03/02 02:07:07;;;;;;;2.75;1.55;;;;;;;;;;6299294;22;20026;-62
2023/03/02 02:09:49;;;;;;;3.15;1.65;;;;;;;;;;6298714;22;20019;-62
2023/03/02 02:12:17;;;;;;;3.42;1.40;;;;;;;;;;6299068;22;20528;-62
2023/03/02 02:14:52;;;;;;;2.20;1.20;;;;;;;;;;6298494;22;20097;-64
2023/03/02 02:17:19;;;;;;;1.73;1.52;;;;;;;;;;6298623;22;20122;-63
2023/03/02 02:20:10;;;;;;;2.60;1.70;;;;;;;;;;6299769;22;20051;-63
2023/03/02 02:23:00;;;;;;;1.80;1.40;;;;;;;;;;6299134;22;20019;-63
2023/03/02 02:25:46;;;;;;;4.25;2.03;;;;;;;;;;6299235;22;20090;-63
2023/03/02 02:28:22;;;;;;;2.55;1.45;;;;;;;;;;6298840;22;20019;-62
2023/03/02 02:30:51;;;;;;;3.90;1.50;;;;;;;;;;6299285;22;20020;-62
2023/03/02 02:33:25;;;;;;;2.70;1.35;;;;;;;;;;6297311;22;20026;-62
2023/03/02 02:35:55;;;;;;;3.65;1.40;;;;;;;;;;6273091;22;20057;-63
2023/03/02 02:38:28;;;;;;;1.77;1.40;;;;;;;;;;6297088;22;20014;-63
2023/03/02 02:40:56;;;;;;;2.75;1.30;;;;;;;;;;6301816;22;20101;-62
2023/03/02 02:43:31;;;;;;;3.97;1.50;;;;;;;;;;6299647;22;20015;-62
2023/03/02 02:45:59;;;;;;;2.75;1.58;;;;;;;;;;6299797;22;20527;-62
2023/03/02 02:48:29;;;;;;;3.03;1.63;;;;;;;;;;6300407;22;20025;-61
2023/03/02 02:51:04;;;;;;;3.58;1.50;;;;;;;;;;6302212;22;20023;-62
2023/03/02 02:53:37;;;;;;;2.20;1.33;;;;;;;;;;6299972;22;20024;-62
2023/03/02 02:56:11;;;;;;;3.50;1.60;;;;;;;;;;6300337;22;20027;-62
2023/03/02 02:58:43;;;;;;;3.60;1.80;;;;;;;;;;6300594;22;20019;-62
2023/03/02 03:01:18;;;;;;;4.03;1.42;;;;;;;;;;6300763;22;20324;-62
2023/03/02 03:03:55;;;;;;;2.70;1.73;;;;;;;;;;6299806;22;20065;-62
2023/03/02 03:06:37;;;;;;;2.03;1.38;;;;;;;;;;6301511;22;20023;-62
2023/03/02 03:09:11;;;;;;;3.67;1.90;;;;;;;;;;6301181;22;20023;-62
2023/03/02 03:11:48;;;;;;;4.13;1.60;;;;;;;;;;6302163;22;20068;-62
2023/03/02 03:14:16;;;;;;;2.40;1.70;;;;;;;;;;6300046;22;20038;-62
2023/03/02 03:16:50;;;;;;;2.92;1.60;;;;;;;;;;6300303;22;20098;-62
2023/03/02 03:19:17;;;;;;;;;;;;;;;;;;6301919;22;20019;-62
2023/03/02 03:21:52;;;;;;;2.83;1.40;;;;;;;;;;6301029;22;20001;-62
2023/03/02 03:24:20;;;;;;;3.75;1.58;;;;;;;;;;6300968;22;20053;-62
2023/03/02 03:26:47;;;;;;;2.55;1.55;;;;;;;;;;6300503;22;20026;-62
2023/03/02 03:29:25;;;;;;;2.83;1.52;;;;;;;;;;6299804;22;20023;-62
2023/03/02 03:31:53;;;;;;;2.70;1.38;;;;;;;;;;6301971;22;20015;-62
2023/03/02 03:34:27;;;;;;;4.20;2.45;;;;;;;;;;6300489;22;20023;-61
2023/03/02 03:36:54;;;;;;;4.05;1.50;;;;;;;;;;6301153;22;20027;-62
2023/03/02 03:39:21;;;;;;;3.22;1.75;;;;;;;;;;6300064;22;20098;-63
2023/03/02 03:41:55;;;;;;;2.45;1.25;;;;;;;;;;6301990;22;20102;-62
2023/03/02 03:44:22;;;;;;;3.22;1.70;;;;;;;;;;6299820;22;20059;-62
2023/03/02 03:46:56;;;;;;;3.15;1.52;;;;;;;;;;6300026;22;20026;-62
2023/03/02 03:49:24;;;;;;;2.38;1.58;;;;;;;;;;6299990;22;20081;-62
2023/03/02 03:51:51;;;;;;;3.10;1.48;;;;;;;;;;6298576;22;20061;-62
2023/03/02 03:54:25;;;;;;;2.53;1.35;;;;;;;;;;6301392;22;20114;-62
2023/03/02 03:56:52;;;;;;;;;;;;;;;;;;6301338;22;20023;-62
2023/03/02 03:59:26;;;;;;;2.10;1.42;;;;;;;;;;6298432;22;19965;-62
2023/03/02 04:01:55;;;;;;;2.80;1.55;;;;;;;;;;6300908;22;20069;-62
2023/03/02 04:04:31;;;;;;;3.80;1.67;;;;;;;;;;6299231;22;20487;-61
2023/03/02 04:06:58;;;;;;;1.98;1.38;;;;;;;;;;6299374;22;20102;-62
2023/03/02 04:09:39;;;;;;;2.35;1.60;;;;;;;;;;6298595;22;20106;-62
2023/03/02 04:12:07;;;;;;;2.72;1.80;;;;;;;;;;6302173;22;20050;-62
2023/03/02 04:14:40;;;;;;;3.38;1.35;;;;;;;;;;6298862;22;20019;-62
2023/03/02 04:17:07;;;;;;;2.88;1.73;;;;;;;;;;6299254;22;20515;-62
2023/03/02 04:19:36;;;;;;;3.35;1.80;;;;;;;;;;6299104;22;20418;-62
2023/03/02 04:22:09;;;;;;;2.10;1.42;;;;;;;;;;6299678;22;20468;-62
2023/03/02 04:24:36;;;;;;;2.28;1.60;;;;;;;;;;6299019;22;20094;-62
2023/03/02 04:27:03;;;;;;;1.65;1.30;;;;;;;;;;6301128;22;20058;-62
2023/03/02 04:29:37;;;;;;;4.18;1.58;;;;;;;;;;6299178;22;20062;-62
2023/03/02 04:32:05;;;;;;;3.20;1.75;;;;;;;;;;6301700;22;20094;-61
2023/03/02 04:34:32;;;;;;;4.03;1.63;;;;;;;;;;6300602;22;20023;-61
2023/03/02 04:37:06;;;;;;;2.47;1.50;;;;;;;;;;6299525;22;20341;-61
2023/03/02 04:39:34;;;;;;;3.33;1.90;;;;;;;;;;6299684;22;20095;-62
2023/03/02 04:42:07;;;;;;;2.80;1.42;;;;;;;;;;6301369;22;20019;-62
2023/03/02 04:44:34;;;;;;;3.40;1.63;;;;;;;;;;6299930;22;20137;-61
2023/03/02 04:47:01;;;;;;;4.40;1.80;;;;;;;;;;6298672;22;20019;-62
2023/03/02 04:49:35;;;;;;;2.17;1.55;;;;;;;;;;6299487;22;20114;-61
2023/03/02 04:52:03;;;;;;;3.13;1.67;;;;;;;;;;6299759;22;20054;-62
2023/03/02 04:54:36;;;;;;;4.22;1.50;;;;;;;;;;6299340;22;20054;-63
2023/03/02 04:57:03;;;;;;;1.67;1.38;;;;;;;;;;6300203;22;20027;-61
2023/03/02 04:59:37;;;;;;;2.30;1.70;;;;;;;;;;6300049;22;20137;-62
2023/03/02 05:02:04;;;;;;;1.98;1.60;;;;;;;;;;6299779;22;20023;-61
2023/03/02 05:04:32;;;;;;;3.33;1.60;;;;;;;;;;6299509;22;20111;-61
2023/03/02 05:07:06;;;;;;;2.05;1.33;;;;;;;;;;6298038;22;20084;-61
2023/03/02 05:09:40;;;;;;;3.47;1.52;;;;;;;;;;6299983;22;20065;-62
2023/03/02 05:12:20;;;;;;;1.63;1.40;;;;;;;;;;6299421;22;20098;-61
2023/03/02 05:14:47;;;;;;;4.32;1.48;;;;;;;;;;6299595;22;20082;-62
2023/03/02 05:17:21;;;;;;;3.40;1.73;;;;;;;;;;6300836;22;20019;-61
2023/03/02 05:19:48;;;;;;;2.40;1.73;;;;;;;;;;6299182;22;20031;-62
2023/03/02 05:22:15;;;;;;;2.05;1.55;;;;;;;;;;6298933;22;20065;-61
2023/03/02 05:24:49;;;;;;;2.72;1.40;;;;;;;;;;6299514;22;20094;-62
2023/03/02 05:27:16;;;;;;;3.13;1.52;;;;;;;;;;6299965;22;20019;-62
2023/03/02 05:29:50;;;;;;;1.83;1.55;;;;;;;;;;6297223;22;20117;-61
2023/03/02 05:32:17;;;;;;;4.90;1.80;;;;;;;;;;6300348;22;20196;-62
2023/03/02 05:34:45;;;;;;;3.15;1.90;;;;;;;;;;6298735;22;20499;-61
2023/03/02 05:37:18;;;;;;;2.13;1.50;;;;;;;;;;6298965;22;20094;-61
2023/03/02 05:39:45;;;;;;;3.80;1.35;;;;;;;;;;6299644;22;20026;-61
2023/03/02 05:42:19;;;;;;;2.47;1.70;;;;;;;;;;6300354;22;20658;-61
2023/03/02 05:44:46;;;;;;;2.83;1.55;;;;;;;;;;6298880;22;20099;-61
2023/03/02 05:47:13;;;;;;;3.35;1.77;;;;;;;;;;6298125;22;20110;-61
2023/03/02 05:49:47;;;;;;;3.05;1.60;;;;;;;;;;6297760;22;20094;-61
2023/03/02 05:52:14;;;;;;;7.93;1.88;;;;;;;;;;6298469;22;20037;-62
2023/03/02 05:54:48;;;;;;;2.42;1.17;;;;;;;;;;6299360;22;20019;-62
2023/03/02 05:57:15;;;;;;;1.38;1.25;;;;;;;;;;6297475;22;20019;-61
2023/03/02 05:59:45;;;;;;;3.58;1.63;;;;;;;;;;6299744;22;20023;-62
2023/03/02 06:02:19;;;;;;;2.10;1.63;;;;;;;;;;6299752;22;20041;-62
2023/03/02 06:04:46;;;;;;;2.88;1.73;;;;;;;;;;6297686;22;20027;-61
2023/03/02 06:07:33;;;;;;;4.93;1.77;;;;;;;;;;6299446;22;20033;-61
2023/03/02 06:10:08;;;;;;;2.15;1.38;;;;;;;;;;6268167;22;20100;-61
2023/03/02 06:12:42;;;;;;;2.45;1.67;;;;;;;;;;6267899;22;20540;-61
2023/03/02 06:15:09;;;;;;;5.70;1.92;;;;;;;;;;6243384;22;20283;-61
2023/03/02 06:17:36;;;;;;;;;;;;;;;;;;6272060;22;20095;-62
2023/03/02 06:20:11;;;;;;;2.08;1.55;;;;;;;;;;6268755;22;19998;-60
2023/03/02 06:22:40;;;;;;;2.30;1.40;;;;;;;;;;6270331;22;20099;-61
2023/03/02 06:25:11;;;;;;;2.97;1.88;;;;;;;;;;6270264;22;20054;-61
2023/03/02 06:27:45;;;;;;;;;;;;;;;;;;6271505;22;20055;-61
2023/03/02 06:30:21;;;;;;;3.95;2.45;;;;;;;;;;6270800;22;19985;-61
2023/03/02 06:32:49;;;;;;;3.53;2.10;;;;;;;;;;6270125;22;20026;-61
2023/03/02 06:35:16;;;;;;;;;;;;;;;;;;6269760;22;20396;-61
2023/03/02 06:37:50;;;;;;;2.47;1.60;;;;;;;;;;6270593;22;19916;-61
2023/03/02 06:40:20;;;;;;;3.00;1.73;;;;;;;;;;6269879;22;20523;-61
2023/03/02 06:42:47;;;;;;;3.20;2.10;;;;;;;;;;6271322;22;20023;-61
2023/03/02 06:45:20;;;;;;;3.40;1.95;;;;;;;;;;6270817;22;20020;-61
2023/03/02 06:47:54;;;;;;;3.95;2.40;;;;;;;;;;6270382;22;20095;-61
2023/03/02 06:50:21;;;;;;;;;;;;;;;;;;6270121;22;20536;-62
2023/03/02 06:52:49;;;;;;;5.68;2.38;;;;;;;;;;6267500;22;19921;-61
2023/03/02 06:55:22;;;;;;;6.35;1.90;;;;;;;;;;6268636;22;20026;-61
2023/03/02 06:57:49;;;;;;;8.10;1.95;;;;;;;;;;6243600;22;20028;-62
2023/03/02 07:00:27;;;;;;;3.40;1.90;;;;;;;;;;6270979;22;20530;-62
2023/03/02 07:02:55;;;;;;;2.40;2.00;;;;;;;;;;6270276;22;20032;-63
2023/03/02 07:05:23;;;;;;;6.75;2.47;;;;;;;;;;6270217;22;20107;-62
2023/03/02 07:08:10;;;;;;;3.60;2.03;;;;;;;;;;6276629;22;20015;-62
2023/03/02 07:10:44;;;;;;;3.33;2.00;;;;;;;;;;6300238;22;20063;-62
2023/03/02 07:13:18;;;;;;;1.65;1.27;;;;;;;;;;6301078;22;20413;-62
2023/03/02 07:15:45;;;;;;;2.67;1.60;;;;;;;;;;6301652;22;20023;-61
2023/03/02 07:18:12;;;;;;;1.42;1.17;;;;;;;;;;6300478;22;20029;-63
2023/03/02 07:20:46;;;;;;;3.53;1.35;;;;;;;;;;6301255;22;20016;-62
2023/03/02 07:23:13;;;;;;;4.30;1.63;;;;;;;;;;6302282;22;20098;-62
2023/03/02 07:25:47;;;;;;;2.85;1.63;;;;;;;;;;6299908;22;20271;-62
2023/03/02 07:28:14;;;;;;;2.70;1.55;;;;;;;;;;6300478;22;20098;-63
2023/03/02 07:30:41;;;;;;;4.03;1.70;;;;;;;;;;6301934;22;20058;-63
2023/03/02 07:33:15;;;;;;;7.72;1.88;;;;;;;;;;6300338;22;20472;-63
2023/03/02 07:35:43;;;;;;;1.50;1.30;;;;;;;;;;6301619;22;20054;-63
2023/03/02 07:38:10;;;;;;;;;;;;;;;;;;6301243;22;20054;-63
2023/03/02 07:40:44;;;;;;;2.50;1.52;;;;;;;;;;6274006;22;19923;-62
2023/03/02 07:43:11;;;;;;;13.93;1.83;;;;;;;;;;6302017;22;20102;-63
2023/03/02 07:45:45;;;;;;;4.13;1.60;;;;;;;;;;6300726;22;20021;-62
2023/03/02 07:48:13;;;;;;;7.32;1.60;;;;;;;;;;6300364;22;20070;-63
2023/03/02 07:50:40;;;;;;;1.85;1.33;;;;;;;;;;6300442;22;20099;-63
2023/03/02 07:53:13;;;;;;;3.33;1.27;;;;;;;;;;6301783;22;20098;-63
2023/03/02 07:55:40;;;;;;;2.47;1.38;;;;;;;;;;6299998;22;20080;-64
2023/03/02 07:58:14;;;;;;;4.22;1.15;;;;;;;;;;6300289;22;20115;-63
2023/03/02 08:00:41;;;;;;;2.42;1.38;;;;;;;;;;6301238;22;20094;-63
2023/03/02 08:03:08;;;;;;;2.00;1.20;;;;;;;;;;6300522;22;20055;-64
2023/03/02 08:05:42;;;;;;;2.47;1.20;;;;;;;;;;6300760;22;20068;-64
2023/03/02 08:08:22;;;;;;;5.00;1.13;;;;;;;;;;6300614;22;20140;-64
2023/03/02 08:11:02;;;;;;;1.48;1.30;;;;;;;;;;6299943;22;20025;-63
2023/03/02 08:13:30;;;;;;;1.63;1.20;;;;;;;;;;6300563;22;20662;-64
2023/03/02 08:16:04;;;;;;;2.95;1.40;;;;;;;;;;6301593;22;20138;-64
2023/03/02 08:18:32;;;;;;;2.30;1.42;;;;;;;;;;6300158;22;20081;-64
2023/03/02 08:20:59;;;;;;;2.00;1.17;;;;;;;;;;6299001;22;20019;-64
2023/03/02 08:23:33;;;;;;;1.80;1.00;;;;;;;;;;6300922;22;20668;-64
2023/03/02 08:26:00;;;;;;;3.45;1.40;;;;;;;;;;6299067;22;20019;-64
2023/03/02 08:28:37;;;;;;;2.63;1.15;;;;;;;;;;6301203;22;20046;-64
2023/03/02 08:31:05;;;;;;;3.08;1.50;;;;;;;;;;6300925;22;20067;-63
2023/03/02 08:33:33;;;;;;;3.05;1.60;;;;;;;;;;6300884;22;20019;-64
2023/03/02 08:36:08;;;;;;;2.90;1.42;;;;;;;;;;6300028;22;20029;-64
2023/03/02 08:38:35;;;;;;;4.88;1.60;;;;;;;;;;6299661;22;20035;-65
2023/03/02 08:41:15;;;;;;;3.88;1.40;;;;;;;;;;6299897;22;20057;-64
2023/03/02 08:43:42;;;;;;;3.38;1.48;;;;;;;;;;6300425;22;20141;-65
2023/03/02 08:46:10;;;;;;;7.50;1.63;;;;;;;;;;6300979;22;20097;-65
2023/03/02 08:48:45;;;;;;;4.53;2.05;;;;;;;;;;6300022;22;20031;-64
2023/03/02 08:51:12;;;;;;;;;;;;;;;;;;6301346;22;20023;-65
2023/03/02 08:53:49;;;;;;;2.45;1.60;;;;;;;;;;6299380;22;20541;-65
2023/03/02 08:56:17;;;;;;;3.53;0.98;;;;;;;;;;6299901;22;20019;-65
2023/03/02 08:58:44;;;;;;;1.45;1.13;;;;;;;;;;6300374;22;20472;-64
2023/03/02 09:01:20;;;;;;;2.50;1.60;;;;;;;;;;6301250;22;20085;-65
2023/03/02 09:03:47;;;;;;;4.47;1.55;;;;;;;;;;6300069;22;20027;-65
2023/03/02 09:06:21;;;;;;;2.05;1.58;;;;;;;;;;6299657;22;20520;-66
2023/03/02 09:09:02;;;;;;;3.55;1.38;;;;;;;;;;6299138;22;20094;-66
2023/03/02 09:11:37;;;;;;;1.40;1.10;;;;;;;;;;6299173;22;20076;-66
2023/03/02 09:14:05;;;;;;;2.95;1.42;;;;;;;;;;6300732;22;20099;-64
2023/03/02 09:16:32;;;;;;;3.65;1.20;;;;;;;;;;6298925;22;20141;-66
2023/03/02 09:19:06;;;;;;;2.10;1.23;;;;;;;;;;6301954;22;20027;-65
2023/03/02 09:21:33;;;;;;;2.38;1.23;;;;;;;;;;6299129;22;20472;-66
2023/03/02 09:24:06;;;;;;;5.50;1.15;;;;;;;;;;6299677;22;20504;-66
2023/03/02 09:26:34;;;;;;;1.42;1.10;;;;;;;;;;6299325;22;20027;-66
2023/03/02 09:29:02;;;;;;;2.63;1.08;;;;;;;;;;6298841;22;20066;-66
2023/03/02 09:31:35;;;;;;;1.23;1.10;;;;;;;;;;6299104;22;20582;-66
2023/03/02 09:34:04;;;;;;;4.03;1.20;;;;;;;;;;6300807;22;20354;-66
2023/03/02 09:36:31;;;;;;;2.40;1.35;;;;;;;;;;6299995;22;20081;-66
2023/03/02 09:39:11;;;;;;;1.50;1.20;;;;;;;;;;6273910;22;20031;-65
2023/03/02 09:41:50;;;;;;;1.77;1.27;;;;;;;;;;6299660;22;20090;-66
2023/03/02 09:44:36;;;;;;;2.13;1.13;;;;;;;;;;6299734;22;20641;-66
2023/03/02 09:47:16;;;;;;;2.30;1.15;;;;;;;;;;6299693;22;20023;-66
2023/03/02 09:50:10;;;;;;;1.90;1.20;;;;;;;;;;6300051;22;20047;-67
2023/03/02 09:52:44;;;;;;;6.25;1.70;;;;;;;;;;6276228;22;20388;-65
2023/03/02 09:55:14;;;;;;;1.95;1.02;;;;;;;;;;6301442;22;20023;-66
2023/03/02 09:57:42;;;;;;;1.67;0.88;;;;;;;;;;6302110;22;20101;-66
2023/03/02 10:00:36;;;;;;;1.73;1.00;;;;;;;;;;6301304;22;20023;-66
2023/03/02 10:03:09;;;;;;;0.98;0.80;;;;;;;;;;6302736;22;20015;-67
2023/03/02 10:05:51;;;;;;;1.00;0.77;;;;;;;;;;6275752;22;20023;-66
2023/03/02 10:08:29;;;;;;;4.40;0.85;;;;;;;;;;6299692;22;20531;-66
2023/03/02 10:11:12;;;;;;;1.85;0.80;;;;;;;;;;6300926;22;20442;-66
2023/03/02 10:13:45;;;;;;;1.77;0.70;;;;;;;;;;6301612;22;20098;-68
2023/03/02 10:16:46;;;;;;;2.25;0.98;;;;;;;;;;6301708;22;20094;-67
2023/03/02 10:19:13;;;;;;;2.05;0.90;;;;;;;;;;6301654;22;20023;-66
2023/03/02 10:21:51;;;;;;;2.03;1.13;;;;;;;;;;6274495;22;20566;-66
2023/03/02 10:24:37;;;;;;;2.78;1.27;;;;;;;;;;6302170;22;20472;-66
2023/03/02 10:27:11;;;;;;;1.45;0.73;;;;;;;;;;6301981;22;20102;-66
2023/03/02 10:29:42;;;;;;;2.22;1.38;;;;;;;;;;6300281;22;20019;-67
2023/03/02 10:32:31;;;;;;;1.90;0.82;;;;;;;;;;6301961;22;20041;-66
2023/03/02 10:35:00;;;;;;;1.90;1.02;;;;;;;;;;6301628;22;20103;-67
2023/03/02 10:37:34;;;;;;;2.13;0.57;;;;;;;;;;6302240;22;20457;-66
2023/03/02 10:40:01;;;;;;;2.55;1.08;;;;;;;;;;6300906;22;20387;-66
2023/03/02 10:42:36;;;;;;;1.73;0.85;;;;;;;;;;6301319;22;20030;-67
2023/03/02 10:45:16;;;;;;;3.25;1.08;;;;;;;;;;6302231;22;20090;-67
2023/03/02 10:47:58;;;;;;;2.90;0.80;;;;;;;;;;6300983;22;20495;-66
2023/03/02 10:50:26;;;;;;;2.17;0.85;;;;;;;;;;6301266;22;20550;-66
2023/03/02 10:52:59;;;;;;;2.28;1.08;;;;;;;;;;6301252;22;20126;-66
2023/03/02 10:55:30;;;;;;;3.35;1.10;;;;;;;;;;6302090;22;20023;-66
2023/03/02 10:58:21;;;;;;;2.30;0.60;;;;;;;;;;6301331;22;20058;-65
2023/03/02 11:00:56;;;;;;;3.22;0.70;;;;;;;;;;6300335;22;20086;-66
2023/03/02 11:03:29;;;;;;;2.75;0.90;;;;;;;;;;6301906;22;20402;-66
2023/03/02 11:05:56;;;;;;;;;;;;;;;;;;6302461;22;20025;-66
2023/03/02 11:08:25;;;;;;;3.70;1.17;;;;;;;;;;6299908;22;19996;-67
2023/03/02 11:11:20;;;;;;;2.28;0.90;;;;;;;;;;6300186;22;20465;-66
2023/03/02 11:13:47;;;;;;;3.42;1.08;;;;;;;;;;6300338;22;20631;-67
2023/03/02 11:16:22;;;;;;;2.38;1.05;;;;;;;;;;6301133;22;20524;-66
2023/03/02 11:19:04;;;;;;;1.58;0.90;;;;;;;;;;6300713;22;20027;-66
2023/03/02 11:21:46;;;;;;;3.25;1.15;;;;;;;;;;6300621;22;20051;-67
2023/03/02 11:24:35;;;;;;;5.60;0.98;;;;;;;;;;6301802;22;20050;-66
2023/03/02 11:27:13;;;;;;;3.83;1.17;;;;;;;;;;6300267;22;20107;-66
2023/03/02 11:29:47;;;;;;;1.73;0.90;;;;;;;;;;6301242;22;20066;-67
2023/03/02 11:32:35;;;;;;;1.70;0.38;;;;;;;;;;6301202;22;20019;-66
2023/03/02 11:35:10;;;;;;;2.50;0.90;;;;;;;;;;6301456;22;20019;-66
2023/03/02 11:37:50;;;;;;;1.50;0.98;;;;;;;;;;6301629;22;20401;-66
2023/03/02 11:40:30;;;;;;;4.22;1.13;;;;;;;;;;6302073;22;20098;-66
2023/03/02 11:43:04;;;;;;;1.10;0.80;;;;;;;;;;6300631;22;20551;-65
2023/03/02 11:45:31;;;;;;;3.55;0.65;;;;;;;;;;6299146;22;20053;-66
2023/03/02 11:48:11;;;;;;;2.38;1.05;;;;;;;;;;6301212;22;20098;-65
2023/03/02 11:50:52;;;;;;;1.20;0.70;;;;;;;;;;6300930;22;20580;-66
2023/03/02 11:53:30;;;;;;;1.58;0.68;;;;;;;;;;6300069;22;20084;-66
2023/03/02 11:55:57;;;;;;;1.35;0.77;;;;;;;;;;6300289;22;20407;-66
2023/03/02 11:58:32;;;;;;;2.50;0.93;;;;;;;;;;6301615;22;20395;-66
2023/03/02 12:01:00;;;;;;;2.08;0.80;;;;;;;;;;6299506;22;20084;-66
2023/03/02 12:03:27;;;;;;;1.98;1.13;;;;;;;;;;6301013;22;20102;-66
2023/03/02 12:06:06;;;;;;;3.65;0.65;;;;;;;;;;6300710;22;20042;-66
2023/03/02 12:08:48;;;;;;;1.25;0.43;;;;;;;;;;6300259;22;20086;-66
2023/03/02 12:11:22;;;;;;;2.38;0.90;;;;;;;;;;6300581;22;20038;-66
2023/03/02 12:14:00;;;;;;;1.35;0.70;;;;;;;;;;6300635;22;20058;-66
2023/03/02 12:16:35;;;;;;;1.90;0.77;;;;;;;;;;6300557;22;20084;-65
2023/03/02 12:19:13;;;;;;;3.30;1.17;;;;;;;;;;6301374;22;20023;-66
2023/03/02 12:21:41;;;;;;;1.98;1.25;;;;;;;;;;6299823;22;20474;-66
2023/03/02 12:24:23;;;;;;;1.05;0.73;;;;;;;;;;6300618;22;20094;-66
2023/03/02 12:27:00;;;;;;;0.95;0.63;;;;;;;;;;6273062;22;20023;-66
2023/03/02 12:29:39;;;;;;;1.15;0.75;;;;;;;;;;6301204;22;20098;-65
2023/03/02 12:32:27;;;;;;;2.70;0.70;;;;;;;;;;6300230;22;20133;-66
2023/03/02 12:35:08;;;;;;;2.03;0.52;;;;;;;;;;6301090;22;20090;-66
2023/03/02 12:37:41;;;;;;;1.50;0.75;;;;;;;;;;6299837;22;20016;-66
2023/03/02 12:40:24;;;;;;;2.80;0.70;;;;;;;;;;6300490;22;20023;-66
2023/03/02 12:43:10;;;;;;;3.38;1.13;;;;;;;;;;6300207;22;20019;-66
2023/03/02 12:45:50;;;;;;;0.82;0.60;;;;;;;;;;6300266;22;20104;-65
2023/03/02 12:48:24;;;;;;;1.42;0.80;;;;;;;;;;6300196;22;20405;-66
2023/03/02 12:51:00;;;;;;;1.40;0.70;;;;;;;;;;6300246;22;20019;-65
2023/03/02 12:53:27;;;;;;;2.97;1.17;;;;;;;;;;6300323;22;20027;-65
2023/03/02 12:55:55;;;;;;;2.63;0.60;;;;;;;;;;6300463;22;20019;-66
2023/03/02 12:58:28;;;;;;;1.55;0.68;;;;;;;;;;6300137;22;20387;-66
2023/03/02 13:00:57;;;;;;;4.45;0.68;;;;;;;;;;6299899;22;20103;-65
2023/03/02 13:03:31;;;;;;;2.97;0.93;;;;;;;;;;6299627;22;20026;-65
2023/03/02 13:06:11;;;;;;;1.90;0.50;;;;;;;;;;6299549;22;20321;-66
2023/03/02 13:08:55;;;;;;;5.47;0.73;;;;;;;;;;6298921;22;20019;-65
2023/03/02 13:11:34;;;;;;;3.08;0.90;;;;;;;;;;6300506;22;20396;-65
2023/03/02 13:14:05;;;;;;;0.75;0.40;;;;;;;;;;6299141;22;20058;-65
2023/03/02 13:16:39;;;;;;;1.38;0.75;;;;;;;;;;6300775;22;20094;-66
2023/03/02 13:19:10;;;;;;;1.63;0.35;;;;;;;;;;6299926;22;20037;-65
2023/03/02 13:21:44;;;;;;;2.92;0.70;;;;;;;;;;6299914;22;20051;-65
2023/03/02 13:24:30;;;;;;;2.08;0.70;;;;;;;;;;6299889;22;20417;-65
2023/03/02 13:27:05;;;;;;;3.42;1.20;;;;;;;;;;6299877;22;20027;-65
2023/03/02 13:29:32;;;;;;;3.00;0.82;;;;;;;;;;6298678;22;20098;-65
2023/03/02 13:32:21;;;;;;;2.53;0.60;;;;;;;;;;6300580;22;20019;-65
2023/03/02 13:34:56;;;;;;;1.60;1.02;;;;;;;;;;6273525;22;20066;-65
2023/03/02 13:37:42;;;;;;;5.53;0.95;;;;;;;;;;6298855;22;20023;-65
2023/03/02 13:40:23;;;;;;;2.70;0.57;;;;;;;;;;6300319;22;20055;-65
2023/03/02 13:42:56;;;;;;;1.90;0.80;;;;;;;;;;6299807;22;20023;-65
2023/03/02 13:45:24;;;;;;;;;;;;;;;;;;6299135;22;20055;-65
2023/03/02 13:47:51;;;;;;;3.10;1.08;;;;;;;;;;6300043;22;19961;-65
2023/03/02 13:50:47;;;;;;;1.30;0.90;;;;;;;;;;6300087;22;20110;-65
2023/03/02 13:53:23;;;;;;;2.42;0.80;;;;;;;;;;6300785;22;20019;-65
2023/03/02 13:55:59;;;;;;;1.63;0.90;;;;;;;;;;6298716;22;20476;-65
2023/03/02 13:58:28;;;;;;;1.63;0.80;;;;;;;;;;6300251;22;20023;-64
2023/03/02 14:01:03;;;;;;;1.15;0.80;;;;;;;;;;6299991;22;20023;-65
2023/03/02 14:03:31;;;;;;;2.15;1.05;;;;;;;;;;6300491;22;20019;-65
2023/03/02 14:06:04;;;;;;;1.50;0.88;;;;;;;;;;6299287;22;20106;-64
2023/03/02 14:08:32;;;;;;;1.88;0.85;;;;;;;;;;6299997;22;20023;-65
2023/03/02 14:11:14;;;;;;;2.97;0.90;;;;;;;;;;6300733;22;20015;-64
2023/03/02 14:13:43;;;;;;;2.83;0.70;;;;;;;;;;6299576;22;20023;-65
2023/03/02 14:16:17;;;;;;;4.22;0.82;;;;;;;;;;6299263;22;20023;-64
2023/03/02 14:18:48;;;;;;;4.45;0.85;;;;;;;;;;6299931;22;20028;-64
2023/03/02 14:21:17;;;;;;;5.28;1.05;;;;;;;;;;6299200;22;20103;-65
2023/03/02 14:23:52;;;;;;;3.22;1.00;;;;;;;;;;6299455;22;20031;-65
2023/03/02 14:26:22;;;;;;;1.60;0.63;;;;;;;;;;6299758;22;20019;-65
2023/03/02 14:28:57;;;;;;;2.65;0.70;;;;;;;;;;6300244;22;20094;-65
2023/03/02 14:31:31;;;;;;;3.40;1.10;;;;;;;;;;6299673;22;20054;-64
2023/03/02 14:34:05;;;;;;;1.45;0.70;;;;;;;;;;6300362;22;20468;-64
2023/03/02 14:36:33;;;;;;;2.75;0.85;;;;;;;;;;6300834;22;20050;-64
2023/03/02 14:39:02;;;;;;;3.40;1.02;;;;;;;;;;6300914;22;20020;-64
2023/03/02 14:41:37;;;;;;;3.40;1.08;;;;;;;;;;6301258;22;20055;-64
2023/03/02 14:44:19;;;;;;;3.33;1.05;;;;;;;;;;6302730;22;20456;-65
2023/03/02 14:46:53;;;;;;;4.70;0.88;;;;;;;;;;6301753;22;20073;-64
2023/03/02 14:49:20;;;;;;;1.98;1.23;;;;;;;;;;6302020;22;20099;-64
2023/03/02 14:51:57;;;;;;;6.32;1.00;;;;;;;;;;6300861;22;20023;-64
2023/03/02 14:54:24;;;;;;;3.63;0.93;;;;;;;;;;6300920;22;20075;-64
2023/03/02 14:56:52;;;;;;;2.97;0.85;;;;;;;;;;6301201;22;20023;-64
2023/03/02 14:59:25;;;;;;;1.30;0.70;;;;;;;;;;6301121;22;20029;-63
2023/03/02 15:01:52;;;;;;;4.10;0.95;;;;;;;;;;6301654;22;20053;-64
2023/03/02 15:04:42;;;;;;;1.83;0.90;;;;;;;;;;6301524;22;20026;-65
2023/03/02 15:07:12;;;;;;;2.45;0.60;;;;;;;;;;6300828;22;20587;-64
2023/03/02 15:09:53;;;;;;;5.90;1.25;;;;;;;;;;6300967;22;20019;-64
2023/03/02 15:12:27;;;;;;;2.42;0.80;;;;;;;;;;6300900;22;20106;-64
2023/03/02 15:14:55;;;;;;;4.78;1.02;;;;;;;;;;6300687;22;20020;-64
2023/03/02 15:17:22;;;;;;;3.35;0.90;;;;;;;;;;6301913;22;20413;-64
2023/03/02 15:19:56;;;;;;;5.03;1.00;;;;;;;;;;6300921;22;20022;-64